Time;durP1;ratioP1;P1;durP2;ratioP2;P2;SDS_P1;SDS_P2;PMS_P1;PMS_P2;Temp;Humidity;BMP_temperature;BMP_pressure;BME280_temperature;BME280_humidity;BME280_pressure;Samples;Min_cycle;Max_cycle;Signal;HPM_P1;HPM_P2
2024/01/05 00:00:44;;;;;;;;;;;3.90;99.90;;;;;;5114412;27;19934;-78
2024/01/05 00:03:10;;;;;;;;;;;4.00;99.90;;;;;;5101193;27;20165;-78
2024/01/05 00:05:36;;;;;;;;;;;3.90;99.90;;;;;;5102999;27;20066;-79
2024/01/05 00:08:02;;;;;;;;;;;3.90;99.90;;;;;;5117482;27;19962;-78
2024/01/05 00:10:27;;;;;;;;;;;3.90;99.90;;;;;;5101736;27;20464;-79
2024/01/05 00:12:53;;;;;;;;;;;3.90;99.90;;;;;;5118074;27;20034;-78
2024/01/05 00:15:24;;;;;;;;;;;3.80;99.90;;;;;;5115723;27;19931;-78
2024/01/05 00:17:50;;;;;;;;;;;3.90;99.90;;;;;;5118386;27;20286;-78
2024/01/05 00:20:16;;;;;;;;;;;3.90;99.90;;;;;;5134698;27;19927;-78
2024/01/05 00:22:41;;;;;;;;;;;3.90;99.90;;;;;;5116783;27;20004;-78
2024/01/05 00:25:07;;;;;;;;;;;3.80;99.90;;;;;;5115411;27;20026;-78
2024/01/05 00:27:33;;;;;;;;;;;3.80;99.90;;;;;;5117402;27;19923;-78
2024/01/05 00:29:58;;;;;;;;;;;4.20;99.90;;;;;;5140129;27;21884;-78
2024/01/05 00:32:24;;;;;;;;;;;3.80;99.90;;;;;;5119886;27;19934;-78
2024/01/05 00:34:50;;;;;;;;;;;3.80;99.90;;;;;;5119253;27;19976;-78
2024/01/05 00:37:15;;;;;;;;;;;3.80;99.90;;;;;;5117566;27;20014;-78
2024/01/05 00:39:42;;;;;;;;;;;3.80;99.90;;;;;;5104530;27;19927;-78
2024/01/05 00:42:08;;;;;;;;;;;3.80;99.90;;;;;;5120175;27;19938;-76
2024/01/05 00:44:34;;;;;;;;;;;3.80;99.90;;;;;;5102104;27;19923;-78
2024/01/05 00:46:59;;;;;;;;;;;3.80;99.90;;;;;;5121175;27;19923;-78
2024/01/05 00:49:25;;;;;;;;;;;5.10;99.90;;;;;;5106003;27;20007;-78
2024/01/05 00:51:50;;;;;;;;;;;4.20;99.90;;;;;;5120980;27;20014;-78
2024/01/05 00:54:16;;;;;;;;;;;3.80;99.90;;;;;;5120519;27;19931;-78
2024/01/05 00:56:42;;;;;;;;;;;3.80;99.90;;;;;;5122692;27;19927;-78
2024/01/05 00:59:08;;;;;;;;;;;3.70;99.90;;;;;;5123594;27;19979;-78
2024/01/05 01:01:33;;;;;;;;;;;4.00;99.90;;;;;;5118522;27;20353;-78
2024/01/05 01:03:59;;;;;;;;;;;3.80;99.90;;;;;;5106350;27;20698;-77
2024/01/05 01:06:24;;;;;;;;;;;3.70;99.90;;;;;;5086648;27;19934;-77
2024/01/05 01:08:50;;;;;;;;;;;3.70;99.90;;;;;;5121424;27;20331;-77
2024/01/05 01:11:16;;;;;;;;;;;3.70;99.90;;;;;;5119826;27;19930;-77
2024/01/05 01:13:43;;;;;;;;;;;3.70;99.90;;;;;;5121783;27;20065;-77
2024/01/05 01:16:09;;;;;;;;;;;3.60;99.90;;;;;;5085814;27;19935;-77
2024/01/05 01:18:35;;;;;;;;;;;3.70;99.90;;;;;;5138727;27;19927;-76
2024/01/05 01:21:00;;;;;;;;;;;3.70;99.90;;;;;;5137997;27;19923;-76
2024/01/05 01:23:26;;;;;;;;;;;3.70;99.90;;;;;;5123173;27;19967;-77
2024/01/05 01:25:52;;;;;;;;;;;3.70;99.90;;;;;;5105465;27;20577;-77
2024/01/05 01:28:17;;;;;;;;;;;4.00;99.90;;;;;;5120980;27;20468;-77
2024/01/05 01:30:43;;;;;;;;;;;3.70;99.90;;;;;;5120326;27;19927;-77
2024/01/05 01:33:09;;;;;;;;;;;3.70;99.90;;;;;;5102282;27;20406;-77
2024/01/05 01:35:34;;;;;;;;;;;3.60;99.90;;;;;;5121183;27;19923;-77
2024/01/05 01:38:00;;;;;;;;;;;4.20;99.90;;;;;;5120656;27;20494;-76
2024/01/05 01:40:26;;;;;;;;;;;3.60;99.90;;;;;;5119625;27;19931;-77
2024/01/05 01:42:52;;;;;;;;;;;3.60;99.90;;;;;;5121589;27;20009;-78
2024/01/05 01:45:24;;;;;;;;;;;3.90;99.90;;;;;;5103435;27;19942;-77
2024/01/05 01:47:50;;;;;;;;;;;3.60;99.90;;;;;;5118056;27;19923;-77
2024/01/05 01:50:16;;;;;;;;;;;3.50;99.90;;;;;;5107786;27;19930;-77
2024/01/05 01:52:43;;;;;;;;;;;3.50;99.90;;;;;;5121633;27;20026;-77
2024/01/05 01:55:09;;;;;;;;;;;4.70;99.90;;;;;;5102418;27;20280;-77
2024/01/05 01:57:41;;;;;;;;;;;3.60;99.90;;;;;;5103382;27;20190;-78
2024/01/05 02:00:07;;;;;;;;;;;3.50;99.90;;;;;;5121140;27;20010;-78
2024/01/05 02:02:34;;;;;;;;;;;3.60;99.90;;;;;;5122315;27;19931;-77
2024/01/05 02:05:00;;;;;;;;;;;3.60;99.90;;;;;;5122577;27;19977;-78
2024/01/05 02:07:25;;;;;;;;;;;3.50;99.90;;;;;;5103565;27;20017;-76
2024/01/05 02:09:51;;;;;;;;;;;3.50;99.90;;;;;;5101582;27;19923;-76
2024/01/05 02:12:18;;;;;;;;;;;3.60;99.90;;;;;;5122421;27;20018;-77
2024/01/05 02:14:45;;;;;;;;;;;3.50;99.90;;;;;;5137889;27;19988;-78
2024/01/05 02:17:30;;;;;;;;;;;3.50;99.90;;;;;;5121457;27;19931;-77
2024/01/05 02:19:56;;;;;;;;;;;3.50;99.90;;;;;;5117449;27;19980;-77
2024/01/05 02:22:22;;;;;;;;;;;3.50;99.90;;;;;;5106937;27;19927;-77
2024/01/05 02:24:48;;;;;;;;;;;4.80;99.90;;;;;;5121445;27;19987;-77
2024/01/05 02:27:13;;;;;;;;;;;3.50;99.90;;;;;;5106430;27;19923;-77
2024/01/05 02:29:39;;;;;;;;;;;3.50;99.90;;;;;;5122034;27;19938;-77
2024/01/05 02:32:05;;;;;;;;;;;3.50;99.90;;;;;;5120770;27;20474;-77
2024/01/05 02:34:30;;;;;;;;;;;3.50;99.90;;;;;;5122121;27;19931;-77
2024/01/05 02:36:56;;;;;;;;;;;3.40;99.90;;;;;;5118728;27;19931;-76
2024/01/05 02:39:21;;;;;;;;;;;3.50;99.90;;;;;;5121416;27;20316;-76
2024/01/05 02:41:47;;;;;;;;;;;3.60;99.90;;;;;;5102640;27;19956;-77
2024/01/05 02:44:12;;;;;;;;;;;3.50;99.90;;;;;;5120454;27;20258;-76
2024/01/05 02:46:38;;;;;;;;;;;3.50;99.90;;;;;;5120503;27;19923;-77
2024/01/05 02:49:10;;;;;;;;;;;3.50;99.90;;;;;;5102339;27;19934;-77
2024/01/05 02:51:36;;;;;;;;;;;4.50;99.90;;;;;;5103880;27;20286;-77
2024/01/05 02:54:01;;;;;;;;;;;3.40;99.90;;;;;;5103382;27;19932;-77
2024/01/05 02:56:27;;;;;;;;;;;3.50;99.90;;;;;;5138706;27;19934;-77
2024/01/05 02:58:52;;;;;;;;;;;3.80;99.90;;;;;;5119654;27;19930;-77
2024/01/05 03:01:18;;;;;;;;;;;3.40;99.90;;;;;;5119707;27;19923;-77
2024/01/05 03:03:45;;;;;;;;;;;3.40;99.90;;;;;;5119785;27;20031;-77
2024/01/05 03:06:15;;;;;;;;;;;4.50;99.90;;;;;;5136670;27;19931;-76
2024/01/05 03:08:42;;;;;;;;;;;4.10;99.90;;;;;;5120034;27;19931;-78
2024/01/05 03:11:07;;;;;;;;;;;3.70;99.90;;;;;;5119083;27;20396;-77
2024/01/05 03:13:33;;;;;;;;;;;4.00;99.90;;;;;;5100184;27;20045;-77
2024/01/05 03:15:58;;;;;;;;;;;3.40;99.90;;;;;;5119661;27;19927;-77
2024/01/05 03:18:24;;;;;;;;;;;3.40;99.90;;;;;;5118613;27;19967;-77
2024/01/05 03:20:49;;;;;;;;;;;3.60;99.90;;;;;;5120035;27;19934;-78
2024/01/05 03:23:15;;;;;;;;;;;4.10;99.90;;;;;;5101761;27;20521;-77
2024/01/05 03:25:41;;;;;;;;;;;3.40;99.90;;;;;;5104143;27;19934;-77
2024/01/05 03:28:12;;;;;;;;;;;3.40;99.90;;;;;;5118253;27;20472;-77
2024/01/05 03:30:38;;;;;;;;;;;3.30;99.90;;;;;;5119235;27;19927;-77
2024/01/05 03:33:04;;;;;;;;;;;3.30;99.90;;;;;;5119056;27;19929;-77
2024/01/05 03:35:30;;;;;;;;;;;3.30;99.90;;;;;;5118806;27;20366;-78
2024/01/05 03:37:56;;;;;;;;;;;3.30;99.90;;;;;;5117417;27;19924;-78
2024/01/05 03:40:21;;;;;;;;;;;3.30;99.90;;;;;;5107201;27;19927;-77
2024/01/05 03:42:47;;;;;;;;;;;3.50;99.90;;;;;;5118554;27;19937;-77
2024/01/05 03:45:13;;;;;;;;;;;3.90;99.90;;;;;;5116303;27;19959;-78
2024/01/05 03:47:38;;;;;;;;;;;3.30;99.90;;;;;;5117303;27;19928;-77
2024/01/05 03:50:04;;;;;;;;;;;3.30;99.90;;;;;;5087104;27;19938;-78
2024/01/05 03:52:30;;;;;;;;;;;3.30;99.90;;;;;;5118971;27;21238;-77
2024/01/05 03:54:56;;;;;;;;;;;3.30;99.90;;;;;;5116123;27;19976;-77
2024/01/05 03:57:21;;;;;;;;;;;3.30;99.90;;;;;;5138418;27;20307;-78
2024/01/05 03:59:47;;;;;;;;;;;3.30;99.90;;;;;;5118740;27;20279;-78
2024/01/05 04:02:13;;;;;;;;;;;3.30;99.90;;;;;;5088850;27;20096;-77
2024/01/05 04:04:43;;;;;;;;;;;3.30;99.90;;;;;;5122926;27;20011;-76
2024/01/05 04:07:08;;;;;;;;;;;3.20;99.90;;;;;;5124257;27;19923;-77
2024/01/05 04:09:34;;;;;;;;;;;3.30;99.90;;;;;;5107409;27;19934;-77
2024/01/05 04:12:00;;;;;;;;;;;3.20;99.90;;;;;;5124246;27;19934;-78
2024/01/05 04:14:26;;;;;;;;;;;3.20;99.90;;;;;;5121910;27;19931;-77
2024/01/05 04:16:51;;;;;;;;;;;3.20;99.90;;;;;;5123787;27;20475;-78
2024/01/05 04:19:17;;;;;;;;;;;3.30;99.90;;;;;;5123669;27;19939;-78
2024/01/05 04:21:43;;;;;;;;;;;3.30;99.90;;;;;;5107505;27;19931;-77
2024/01/05 04:24:08;;;;;;;;;;;3.20;99.90;;;;;;5104813;27;20490;-77
2024/01/05 04:26:34;;;;;;;;;;;3.30;99.90;;;;;;5121366;27;20360;-78
2024/01/05 04:29:00;;;;;;;;;;;3.20;99.90;;;;;;5106129;27;19994;-77
2024/01/05 04:31:26;;;;;;;;;;;4.10;99.90;;;;;;5106004;27;20070;-78
2024/01/05 04:33:52;;;;;;;;;;;3.30;99.90;;;;;;5122510;27;21467;-78
2024/01/05 04:36:19;;;;;;;;;;;3.30;99.90;;;;;;5122140;27;19927;-78
2024/01/05 04:38:44;;;;;;;;;;;4.20;99.90;;;;;;5120947;27;19934;-77
2024/01/05 04:41:11;;;;;;;;;;;4.70;99.90;;;;;;5123766;27;19923;-77
2024/01/05 04:43:44;;;;;;;;;;;4.70;99.90;;;;;;5118614;27;19938;-77
2024/01/05 04:46:10;;;;;;;;;;;3.20;99.90;;;;;;5122550;27;19923;-77
2024/01/05 04:48:35;;;;;;;;;;;3.20;99.90;;;;;;5119510;27;19931;-76
2024/01/05 04:51:01;;;;;;;;;;;3.20;99.90;;;;;;5105400;27;20252;-78
2024/01/05 04:53:27;;;;;;;;;;;4.70;99.90;;;;;;5121544;27;20100;-77
2024/01/05 04:55:53;;;;;;;;;;;3.80;99.90;;;;;;5105566;27;20629;-78
2024/01/05 04:58:19;;;;;;;;;;;3.20;99.90;;;;;;5122681;27;20445;-77
2024/01/05 05:00:45;;;;;;;;;;;3.90;99.90;;;;;;5106621;27;19931;-77
2024/01/05 05:03:11;;;;;;;;;;;3.20;99.90;;;;;;5121408;27;19931;-77
2024/01/05 05:05:37;;;;;;;;;;;3.80;99.90;;;;;;5104319;27;19934;-78
2024/01/05 05:08:03;;;;;;;;;;;3.20;99.90;;;;;;5103542;27;20045;-78
2024/01/05 05:10:28;;;;;;;;;;;3.30;99.90;;;;;;5120446;27;20135;-77
2024/01/05 05:12:54;;;;;;;;;;;3.30;99.90;;;;;;5119711;27;19939;-77
2024/01/05 05:15:20;;;;;;;;;;;3.80;99.90;;;;;;5119031;27;19942;-78
2024/01/05 05:17:45;;;;;;;;;;;3.30;99.90;;;;;;5121834;27;19942;-78
2024/01/05 05:20:12;;;;;;;;;;;3.60;99.90;;;;;;5121704;27;19931;-78
2024/01/05 05:22:38;;;;;;;;;;;3.20;99.90;;;;;;5120316;27;20379;-78
2024/01/05 05:25:04;;;;;;;;;;;3.20;99.90;;;;;;5104024;27;19927;-78
2024/01/05 05:27:30;;;;;;;;;;;4.40;99.90;;;;;;5121934;27;19934;-77
2024/01/05 05:29:56;;;;;;;;;;;3.30;99.90;;;;;;5104438;27;19923;-77
2024/01/05 05:32:27;;;;;;;;;;;3.30;99.90;;;;;;5119684;27;19987;-78
2024/01/05 05:34:53;;;;;;;;;;;3.80;99.90;;;;;;5119762;27;20377;-78
2024/01/05 05:37:19;;;;;;;;;;;3.30;99.90;;;;;;5122102;27;19927;-77
2024/01/05 05:39:44;;;;;;;;;;;3.30;99.90;;;;;;5123212;27;19931;-76
2024/01/05 05:42:10;;;;;;;;;;;4.40;99.90;;;;;;5118037;27;19940;-78
2024/01/05 05:44:35;;;;;;;;;;;3.30;99.90;;;;;;5085887;27;19954;-77
2024/01/05 05:47:01;;;;;;;;;;;3.50;99.90;;;;;;5105711;27;19927;-77
2024/01/05 05:49:26;;;;;;;;;;;3.50;99.90;;;;;;5103019;27;20010;-77
2024/01/05 05:51:52;;;;;;;;;;;4.60;99.90;;;;;;5120353;27;19973;-78
2024/01/05 05:54:18;;;;;;;;;;;3.40;99.90;;;;;;5103075;27;20338;-77
2024/01/05 05:56:43;;;;;;;;;;;3.40;99.90;;;;;;5105996;27;19927;-78
2024/01/05 05:59:11;;;;;;;;;;;3.60;99.90;;;;;;5120375;27;20170;-77
2024/01/05 06:01:36;;;;;;;;;;;3.40;99.90;;;;;;5120903;27;19927;-78
2024/01/05 06:04:03;;;;;;;;;;;3.40;99.90;;;;;;5106691;27;20026;-77
2024/01/05 06:06:29;;;;;;;;;;;3.40;99.90;;;;;;5139529;27;20300;-77
2024/01/05 06:08:57;;;;;;;;;;;3.90;99.90;;;;;;5104499;27;19961;-78
2024/01/05 06:11:26;;;;;;;;;;;3.80;99.90;;;;;;5119558;27;20018;-78
2024/01/05 06:13:52;;;;;;;;;;;3.90;99.90;;;;;;5120645;27;19975;-78
2024/01/05 06:16:18;;;;;;;;;;;3.60;99.90;;;;;;5119668;27;20022;-77
2024/01/05 06:18:43;;;;;;;;;;;3.90;99.90;;;;;;5120943;27;19923;-77
2024/01/05 06:21:09;;;;;;;;;;;3.50;99.90;;;;;;5120194;27;19955;-77
2024/01/05 06:23:41;;;;;;;;;;;3.50;99.90;;;;;;5105324;27;19975;-77
2024/01/05 06:26:07;;;;;;;;;;;3.50;99.90;;;;;;5098990;27;19952;-78
2024/01/05 06:28:33;;;;;;;;;;;3.50;99.90;;;;;;5121175;27;19927;-78
2024/01/05 06:30:58;;;;;;;;;;;3.50;99.90;;;;;;5121532;27;20445;-77
2024/01/05 06:33:24;;;;;;;;;;;4.20;99.90;;;;;;5119329;27;19931;-77
2024/01/05 06:35:56;;;;;;;;;;;3.80;99.90;;;;;;5103262;27;19979;-78
2024/01/05 06:38:21;;;;;;;;;;;3.50;99.90;;;;;;5101123;27;19938;-77
2024/01/05 06:40:47;;;;;;;;;;;3.60;99.90;;;;;;5084928;27;19963;-77
2024/01/05 06:43:12;;;;;;;;;;;3.50;99.90;;;;;;5107131;27;20417;-77
2024/01/05 06:45:38;;;;;;;;;;;3.50;99.90;;;;;;5116991;27;19923;-77
2024/01/05 06:48:05;;;;;;;;;;;3.60;99.90;;;;;;5118821;27;19927;-77
2024/01/05 06:50:30;;;;;;;;;;;3.60;99.90;;;;;;5101820;27;20015;-78
2024/01/05 06:52:56;;;;;;;;;;;3.50;99.90;;;;;;5100887;27;19935;-76
2024/01/05 06:55:22;;;;;;;;;;;3.60;99.90;;;;;;5118039;27;19933;-77
2024/01/05 06:57:48;;;;;;;;;;;3.60;99.90;;;;;;5116754;27;19923;-77
2024/01/05 07:00:14;;;;;;;;;;;3.60;99.90;;;;;;5119242;27;20018;-79
2024/01/05 07:02:46;;;;;;;;;;;3.60;99.90;;;;;;5120562;27;19949;-78
2024/01/05 07:05:12;;;;;;;;;;;3.60;99.90;;;;;;5120383;27;20006;-78
2024/01/05 07:07:39;;;;;;;;;;;3.60;99.90;;;;;;5121452;27;19970;-78
2024/01/05 07:10:05;;;;;;;;;;;3.60;99.90;;;;;;5119224;27;19939;-77
2024/01/05 07:12:34;;;;;;;;;;;3.70;99.90;;;;;;5122686;27;19930;-76
2024/01/05 07:15:00;;;;;;;;;;;3.70;99.90;;;;;;5117594;27;19931;-77
2024/01/05 07:17:26;;;;;;;;;;;3.70;99.90;;;;;;5131345;27;19970;-78
2024/01/05 07:19:52;;;;;;;;;;;3.70;99.90;;;;;;5117649;27;20059;-77
2024/01/05 07:22:18;;;;;;;;;;;3.80;99.90;;;;;;5102222;27;19923;-78
2024/01/05 07:24:43;;;;;;;;;;;3.80;99.90;;;;;;5118163;27;20658;-78
2024/01/05 07:27:15;;;;;;;;;;;3.70;99.90;;;;;;5109909;27;19931;-78
2024/01/05 07:29:40;;;;;;;;;;;3.70;99.90;;;;;;5114966;27;19926;-78
2024/01/05 07:32:06;;;;;;;;;;;3.80;99.90;;;;;;5104314;27;19923;-77
2024/01/05 07:34:32;;;;;;;;;;;3.70;99.90;;;;;;5102908;27;19927;-77
2024/01/05 07:36:57;;;;;;;;;;;3.90;99.90;;;;;;5118659;27;19971;-77
2024/01/05 07:39:23;;;;;;;;;;;4.60;99.90;;;;;;5109659;27;20432;-82
2024/01/05 07:41:49;;;;;;;;;;;4.50;99.90;;;;;;5102188;27;19923;-78
2024/01/05 07:44:15;;;;;;;;;;;3.80;99.90;;;;;;5120910;27;20054;-78
2024/01/05 07:46:41;;;;;;;;;;;3.80;99.90;;;;;;5089738;27;20338;-77
2024/01/05 07:49:07;;;;;;;;;;;3.80;99.90;;;;;;5125361;27;20481;-77
2024/01/05 07:51:32;;;;;;;;;;;3.80;99.90;;;;;;5121580;27;19928;-79
2024/01/05 07:53:58;;;;;;;;;;;3.80;99.90;;;;;;5102571;27;19967;-79
2024/01/05 07:56:24;;;;;;;;;;;4.80;99.90;;;;;;5118850;27;19923;-76
2024/01/05 07:58:49;;;;;;;;;;;3.80;99.90;;;;;;5117591;27;19978;-78
2024/01/05 08:01:18;;;;;;;;;;;4.90;99.90;;;;;;5121093;27;19923;-78
2024/01/05 08:03:44;;;;;;;;;;;3.80;99.90;;;;;;5119226;27;21156;-78
2024/01/05 08:06:16;;;;;;;;;;;3.90;99.90;;;;;;5099292;27;20618;-77
2024/01/05 08:08:43;;;;;;;;;;;3.90;99.90;;;;;;5110770;27;20031;-79
2024/01/05 08:11:10;;;;;;;;;;;3.80;99.90;;;;;;5117296;27;19938;-77
2024/01/05 08:13:36;;;;;;;;;;;3.90;99.90;;;;;;5100444;27;20442;-77
2024/01/05 08:16:01;;;;;;;;;;;3.90;99.90;;;;;;5114990;27;19927;-79
2024/01/05 08:18:28;;;;;;;;;;;3.90;99.90;;;;;;5117005;27;20285;-78
2024/01/05 08:20:54;;;;;;;;;;;3.90;99.90;;;;;;5132654;27;19931;-78
2024/01/05 08:23:20;;;;;;;;;;;3.90;99.90;;;;;;5115969;27;20405;-78
2024/01/05 08:25:47;;;;;;;;;;;3.90;99.90;;;;;;5133611;27;20454;-77
2024/01/05 08:28:12;;;;;;;;;;;3.90;99.90;;;;;;5117023;27;19923;-79
2024/01/05 08:30:39;;;;;;;;;;;3.90;99.90;;;;;;5098111;27;19942;-76
2024/01/05 08:33:07;;;;;;;;;;;3.90;99.90;;;;;;5081278;27;19930;-77
2024/01/05 08:35:33;;;;;;;;;;;3.90;99.90;;;;;;5099229;27;19926;-78
2024/01/05 08:37:59;;;;;;;;;;;4.00;99.90;;;;;;5098550;27;19949;-78
2024/01/05 08:40:26;;;;;;;;;;;4.00;99.90;;;;;;5115484;27;19923;-78
2024/01/05 08:42:52;;;;;;;;;;;4.00;99.90;;;;;;5100882;27;20050;-78
2024/01/05 08:45:19;;;;;;;;;;;4.60;99.90;;;;;;5101220;27;19933;-78
2024/01/05 08:47:45;;;;;;;;;;;4.10;99.90;;;;;;5116440;27;19928;-78
2024/01/05 08:50:11;;;;;;;;;;;4.30;99.90;;;;;;5088531;27;19930;-77
2024/01/05 08:52:36;;;;;;;;;;;4.10;99.90;;;;;;5119118;27;20021;-77
2024/01/05 08:55:03;;;;;;;;;;;4.10;99.90;;;;;;5117725;27;19938;-78
2024/01/05 08:57:29;;;;;;;;;;;4.20;99.90;;;;;;5116769;27;19946;-78
2024/01/05 08:59:55;;;;;;;;;;;4.20;99.90;;;;;;5101344;27;19931;-79
2024/01/05 09:02:22;;;;;;;;;;;4.80;99.90;;;;;;5128488;27;19927;-77
2024/01/05 09:04:48;;;;;;;;;;;4.10;99.90;;;;;;5120449;27;19923;-78
2024/01/05 09:07:15;;;;;;;;;;;4.20;99.90;;;;;;5121528;27;19930;-78
2024/01/05 09:09:40;;;;;;;;;;;4.30;99.90;;;;;;5102457;27;19927;-78
2024/01/05 09:12:07;;;;;;;;;;;4.30;99.90;;;;;;5121019;27;19934;-79
2024/01/05 09:14:32;;;;;;;;;;;4.30;99.90;;;;;;5102976;27;19987;-77
2024/01/05 09:16:58;;;;;;;;;;;4.50;99.90;;;;;;5103393;27;20437;-76
2024/01/05 09:19:25;;;;;;;;;;;4.30;99.90;;;;;;5120485;27;19934;-79
2024/01/05 09:21:52;;;;;;;;;;;4.30;99.90;;;;;;5104233;27;19932;-82
2024/01/05 09:24:23;;;;;;;;;;;4.60;99.90;;;;;;5105469;27;19942;-78
2024/01/05 09:26:49;;;;;;;;;;;5.60;99.90;;;;;;5118642;27;19926;-79
2024/01/05 09:29:15;;;;;;;;;;;4.40;99.90;;;;;;5125928;27;19927;-80
2024/01/05 09:31:45;;;;;;;;;;;4.40;99.90;;;;;;5119472;27;19971;-78
2024/01/05 09:34:12;;;;;;;;;;;4.40;99.90;;;;;;5117963;27;19966;-78
2024/01/05 09:36:39;;;;;;;;;;;4.40;99.90;;;;;;5085635;27;19923;-80
2024/01/05 09:39:05;;;;;;;;;;;4.50;99.90;;;;;;5121825;27;19939;-78
2024/01/05 09:41:30;;;;;;;;;;;4.50;99.90;;;;;;5137742;27;19938;-77
2024/01/05 09:43:57;;;;;;;;;;;4.50;99.90;;;;;;5122523;27;19931;-80
2024/01/05 09:46:22;;;;;;;;;;;4.50;99.90;;;;;;5103801;27;19959;-79
2024/01/05 09:48:48;;;;;;;;;;;4.60;99.90;;;;;;5086217;27;19926;-78
2024/01/05 09:51:13;;;;;;;;;;;4.60;99.90;;;;;;5122857;27;19966;-80
2024/01/05 09:53:39;;;;;;;;;;;4.60;99.90;;;;;;5120323;27;19931;-79
2024/01/05 09:56:07;;;;;;;;;;;4.60;99.90;;;;;;5119828;27;20484;-79
2024/01/05 09:58:34;;;;;;;;;;;4.60;99.90;;;;;;5122657;27;19933;-79
2024/01/05 10:01:04;;;;;;;;;;;4.70;99.90;;;;;;5118434;27;19934;-80
2024/01/05 10:03:29;;;;;;;;;;;4.70;99.90;;;;;;5122373;27;19951;-79
2024/01/05 10:05:56;;;;;;;;;;;4.70;99.90;;;;;;5122095;27;20426;-79
2024/01/05 10:08:22;;;;;;;;;;;4.70;99.90;;;;;;5102099;27;19986;-78
2024/01/05 10:10:59;;;;;;;;;;;5.20;99.90;;;;;;5122326;27;20057;-79
2024/01/05 10:13:26;;;;;;;;;;;4.80;99.90;;;;;;5119944;27;20397;-80
2024/01/05 10:15:53;;;;;;;;;;;4.80;99.90;;;;;;5121419;27;19978;-79
2024/01/05 10:18:19;;;;;;;;;;;4.80;99.90;;;;;;5096819;27;19923;-81
2024/01/05 10:20:45;;;;;;;;;;;4.80;99.90;;;;;;5121875;27;19931;-80
2024/01/05 10:23:13;;;;;;;;;;;4.80;99.90;;;;;;5120545;27;20441;-81
2024/01/05 10:25:39;;;;;;;;;;;4.90;99.90;;;;;;5121579;27;19930;-81
2024/01/05 10:28:31;;;;;;;;;;;4.90;99.90;;;;;;5119663;27;19927;-80
2024/01/05 10:31:09;;;;;;;;;;;5.00;99.90;;;;;;5115296;27;19927;-82
2024/01/05 10:33:34;;;;;;;;;;;5.00;99.90;;;;;;5103795;27;19963;-81
2024/01/05 10:36:04;;;;;;;;;;;5.00;99.90;;;;;;5120493;27;20084;-78
2024/01/05 10:38:31;;;;;;;;;;;5.00;99.90;;;;;;5120778;27;19937;-79
2024/01/05 10:41:04;;;;;;;;;;;5.00;99.90;;;;;;5118611;27;19934;-79
2024/01/05 10:43:30;;;;;;;;;;;5.10;99.90;;;;;;5102672;27;19923;-79
2024/01/05 10:45:56;;;;;;;;;;;5.10;99.90;;;;;;5119222;27;19947;-81
2024/01/05 10:48:22;;;;;;;;;;;5.10;99.90;;;;;;5118087;27;19927;-79
2024/01/05 10:50:49;;;;;;;;;;;5.10;99.90;;;;;;5107002;27;21436;-76
2024/01/05 10:53:15;;;;;;;;;;;5.00;99.90;;;;;;5118416;27;20430;-79
2024/01/05 10:55:42;;;;;;;;;;;5.20;99.90;;;;;;5117891;27;20019;-78
2024/01/05 10:58:08;;;;;;;;;;;5.10;99.90;;;;;;5118632;27;20289;-84
2024/01/05 11:00:34;;;;;;;;;;;5.10;99.90;;;;;;5120182;27;19931;-78
2024/01/05 11:03:15;;;;;;;;;;;5.10;99.90;;;;;;5100636;27;19927;-76
2024/01/05 11:05:41;;;;;;;;;;;5.10;99.90;;;;;;5099876;27;19931;-78
2024/01/05 11:08:28;;;;;;;;;;;5.30;99.90;;;;;;5117778;27;20093;-80
2024/01/05 11:11:15;;;;;;;;;;;5.30;99.90;;;;;;5115474;27;19934;-80
2024/01/05 11:13:41;;;;;;;;;;;5.40;99.90;;;;;;5115574;27;19932;-81
2024/01/05 11:16:13;;;;;;;;;;;5.60;99.90;;;;;;5103032;27;19941;-80
2024/01/05 11:18:55;;;;;;;;;;;5.70;99.90;;;;;;5119559;27;19937;-79
2024/01/05 11:21:25;;;;;;;;;;;5.80;99.90;;;;;;5135633;27;19927;-80
2024/01/05 11:23:54;;;;;;;;;;;5.80;99.90;;;;;;5117055;27;19927;-78
2024/01/05 11:26:35;;;;;;;;;;;5.80;99.90;;;;;;5085231;27;19969;-80
2024/01/05 11:29:02;;;;;;;;;;;5.80;99.90;;;;;;5119745;27;20289;-80
2024/01/05 11:31:46;;;;;;;;;;;5.80;99.90;;;;;;5118033;27;19985;-78
2024/01/05 11:34:34;;;;;;;;;;;5.90;99.90;;;;;;5113059;27;19927;-77
2024/01/05 11:37:00;;;;;;;;;;;5.80;99.90;;;;;;5116654;27;20429;-79
2024/01/05 11:39:46;;;;;;;;;;;5.70;99.90;;;;;;5118966;27;19923;-80
2024/01/05 11:42:24;;;;;;;;;;;5.80;99.90;;;;;;5121801;27;19938;-81
2024/01/05 11:44:50;;;;;;;;;;;5.90;99.90;;;;;;5124049;27;19923;-80
2024/01/05 11:47:34;;;;;;;;;;;5.90;99.90;;;;;;5118842;27;20488;-78
2024/01/05 11:50:20;;;;;;;;;;;5.90;99.90;;;;;;5100714;27;19974;-80
2024/01/05 11:52:46;;;;;;;;;;;5.90;99.90;;;;;;5095266;27;19931;-78
2024/01/05 11:55:12;;;;;;;;;;;6.00;99.90;;;;;;5099083;27;19923;-80
2024/01/05 11:57:37;;;;;;;;;;;6.00;99.90;;;;;;5084226;27;20535;-80
2024/01/05 12:00:03;;;;;;;;;;;6.00;99.90;;;;;;5134519;27;19939;-79
2024/01/05 12:02:30;;;;;;;;;;;5.90;99.90;;;;;;5081835;27;19934;-79
2024/01/05 12:04:55;;;;;;;;;;;6.00;99.90;;;;;;5102118;27;19927;-76
2024/01/05 12:07:22;;;;;;;;;;;6.00;99.90;;;;;;5103856;27;19930;-78
2024/01/05 12:09:52;;;;;;;;;;;5.90;99.90;;;;;;5116841;27;20116;-78
2024/01/05 12:12:17;;;;;;;;;;;6.00;99.90;;;;;;5117573;27;20060;-79
2024/01/05 12:14:43;;;;;;;;;;;6.00;99.90;;;;;;5119647;27;20014;-78
2024/01/05 12:17:12;;;;;;;;;;;6.00;99.90;;;;;;5121394;27;19934;-77
2024/01/05 12:19:39;;;;;;;;;;;6.00;99.90;;;;;;5106675;27;19987;-77
2024/01/05 12:22:07;;;;;;;;;;;6.00;99.90;;;;;;5097959;27;19931;-78
2024/01/05 12:24:33;;;;;;;;;;;6.00;99.90;;;;;;5117568;27;19927;-78
2024/01/05 12:26:59;;;;;;;;;;;6.00;99.90;;;;;;5121273;27;19927;-77
2024/01/05 12:29:24;;;;;;;;;;;6.00;99.90;;;;;;5120755;27;19931;-79
2024/01/05 12:31:50;;;;;;;;;;;6.00;99.90;;;;;;5124447;27;19931;-77
2024/01/05 12:34:17;;;;;;;;;;;6.00;99.90;;;;;;5122803;27;19930;-78
2024/01/05 12:36:43;;;;;;;;;;;6.00;99.90;;;;;;5121222;27;19956;-82
2024/01/05 12:39:12;;;;;;;;;;;6.00;99.90;;;;;;5120342;27;20049;-85
2024/01/05 12:41:39;;;;;;;;;;;6.00;99.90;;;;;;5104097;27;20369;-77
2024/01/05 12:44:10;;;;;;;;;;;6.10;99.90;;;;;;5142433;27;20038;-77
2024/01/05 12:46:43;;;;;;;;;;;6.10;99.90;;;;;;5122264;27;19971;-76
2024/01/05 12:49:18;;;;;;;;;;;6.10;99.90;;;;;;5122706;27;19923;-76
2024/01/05 12:51:51;;;;;;;;;;;6.20;99.90;;;;;;5121973;27;19984;-78
2024/01/05 12:54:17;;;;;;;;;;;6.20;99.90;;;;;;5124131;27;19960;-77
2024/01/05 12:56:48;;;;;;;;;;;6.50;99.90;;;;;;5116450;27;19927;-80
2024/01/05 12:59:21;;;;;;;;;;;6.20;99.90;;;;;;5126497;27;19923;-79
2024/01/05 13:01:48;;;;;;;;;;;6.20;99.90;;;;;;5122531;27;19995;-79
2024/01/05 13:04:26;;;;;;;;;;;6.30;99.90;;;;;;5126426;27;19937;-78
2024/01/05 13:06:52;;;;;;;;;;;6.30;99.90;;;;;;5124653;27;19927;-80
2024/01/05 13:09:17;;;;;;;;;;;6.30;99.90;;;;;;5124444;27;19927;-79
2024/01/05 13:11:56;;;;;;;;;;;6.40;99.90;;;;;;5122280;27;19927;-80
2024/01/05 13:14:21;;;;;;;;;;;6.40;99.90;;;;;;5109411;27;19974;-81
2024/01/05 13:16:47;;;;;;;;;;;6.40;99.90;;;;;;5107717;27;20423;-81
2024/01/05 13:19:14;;;;;;;;;;;6.40;99.90;;;;;;5109888;27;19931;-81
2024/01/05 13:21:39;;;;;;;;;;;6.50;99.90;;;;;;5107397;27;20013;-79
2024/01/05 13:24:05;;;;;;;;;;;6.50;99.90;;;;;;5125510;27;20362;-81
2024/01/05 13:26:31;;;;;;;;;;;6.40;99.90;;;;;;5142431;27;19927;-79
2024/01/05 13:28:58;;;;;;;;;;;6.50;99.90;;;;;;5094351;27;19937;-78
2024/01/05 13:31:35;;;;;;;;;;;6.40;99.90;;;;;;5113161;27;19927;-79
2024/01/05 13:34:09;;;;;;;;;;;6.50;99.90;;;;;;5141496;27;19934;-79
2024/01/05 13:36:36;;;;;;;;;;;6.50;99.90;;;;;;5106024;27;19980;-79
2024/01/05 13:39:02;;;;;;;;;;;6.50;99.90;;;;;;5124717;27;20493;-79
2024/01/05 13:41:48;;;;;;;;;;;6.50;99.90;;;;;;5142043;27;20006;-80
2024/01/05 13:44:13;;;;;;;;;;;6.50;99.90;;;;;;5109008;27;19931;-78
2024/01/05 13:46:39;;;;;;;;;;;6.40;99.90;;;;;;5124716;27;19927;-79
2024/01/05 13:49:05;;;;;;;;;;;6.40;99.90;;;;;;5115725;27;20096;-79
2024/01/05 13:51:31;;;;;;;;;;;6.40;99.90;;;;;;5112036;27;19939;-79
2024/01/05 13:53:58;;;;;;;;;;;6.40;99.90;;;;;;5127780;27;19942;-79
2024/01/05 13:56:26;;;;;;;;;;;6.40;99.90;;;;;;5093464;27;20433;-79
2024/01/05 13:58:52;;;;;;;;;;;6.30;99.90;;;;;;5095544;27;19938;-79
2024/01/05 14:01:17;;;;;;;;;;;6.40;99.90;;;;;;5124061;27;19931;-79
2024/01/05 14:03:43;;;;;;;;;;;6.30;99.90;;;;;;5122662;27;19943;-79
2024/01/05 14:06:11;;;;;;;;;;;6.30;99.90;;;;;;5123083;27;19927;-78
2024/01/05 14:08:44;;;;;;;;;;;6.20;99.90;;;;;;5125394;27;19945;-79
2024/01/05 14:11:29;;;;;;;;;;;6.20;99.90;;;;;;5142260;27;20029;-79
2024/01/05 14:14:07;;;;;;;;;;;6.20;99.90;;;;;;5125617;27;19931;-89
2024/01/05 14:16:32;;;;;;;;;;;6.20;99.90;;;;;;5123980;27;19989;-77
2024/01/05 14:18:58;;;;;;;;;;;6.20;99.90;;;;;;5121712;27;19961;-80
2024/01/05 14:21:24;;;;;;;;;;;6.20;99.90;;;;;;5120059;27;19927;-84
2024/01/05 14:23:49;;;;;;;;;;;6.20;99.90;;;;;;5123455;27;20357;-81
2024/01/05 14:26:15;;;;;;;;;;;6.20;99.90;;;;;;5120355;27;19927;-81
2024/01/05 14:28:43;;;;;;;;;;;6.60;99.90;;;;;;5121191;27;19930;-81
2024/01/05 14:31:22;;;;;;;;;;;6.20;99.90;;;;;;5105875;27;19930;-79